createdAt,value
2023-01-30T00:01:12.836Z,-5.20
2023-01-30T00:03:40.128Z,-5.20
2023-01-30T00:06:07.582Z,-5.10
2023-01-30T00:08:34.878Z,-5.00
2023-01-30T00:11:11.589Z,-4.90
2023-01-30T00:13:40.381Z,-4.70
2023-01-30T00:16:10.076Z,-4.50
2023-01-30T00:18:39.029Z,-4.40
2023-01-30T00:21:08.618Z,-4.10
2023-01-30T00:23:37.173Z,-4.00
2023-01-30T00:26:06.062Z,-3.80
2023-01-30T00:28:33.464Z,-3.10
2023-01-30T00:31:00.841Z,-2.90
2023-01-30T00:33:28.394Z,-3.00
2023-01-30T00:35:57.517Z,-3.10
2023-01-30T00:38:25.888Z,-3.10
2023-01-30T00:40:53.163Z,-2.90
2023-01-30T00:43:40.731Z,-2.80
2023-01-30T00:46:39.568Z,-2.70
2023-01-30T00:49:06.825Z,-2.40
2023-01-30T00:51:35.276Z,-2.40
2023-01-30T00:54:02.523Z,-2.40
2023-01-30T00:56:31.715Z,-2.30
2023-01-30T00:58:58.996Z,-2.30
2023-01-30T01:01:26.332Z,-2.30
2023-01-30T01:03:53.679Z,-2.10
2023-01-30T01:06:21.074Z,-2.20
2023-01-30T01:08:48.414Z,-2.20
2023-01-30T01:11:24.626Z,-2.10
2023-01-30T01:13:54.342Z,-2.20
2023-01-30T01:16:22.212Z,-2.20
2023-01-30T01:18:49.506Z,-2.20
2023-01-30T01:21:19.359Z,-2.50
2023-01-30T01:24:05.847Z,-2.90
2023-01-30T01:26:34.261Z,-3.10
2023-01-30T01:29:01.401Z,-3.30
2023-01-30T01:31:30.386Z,-3.40
2023-01-30T01:33:57.834Z,-3.40
2023-01-30T01:36:52.129Z,-3.40
2023-01-30T01:39:13.694Z,-3.50
2023-01-30T01:41:40.920Z,-3.60
2023-01-30T01:44:11.377Z,-3.60
2023-01-30T01:46:39.571Z,-3.70
2023-01-30T01:49:17.428Z,-3.70
2023-01-30T01:51:51.710Z,-3.80
2023-01-30T01:54:39.040Z,-3.80
2023-01-30T01:57:16.017Z,-3.70
2023-01-30T01:59:53.159Z,-3.70
2023-01-30T02:02:20.991Z,-3.70
2023-01-30T02:05:03.219Z,-3.80
2023-01-30T02:07:58.544Z,-3.80
2023-01-30T02:10:49.128Z,-3.90
2023-01-30T02:13:17.294Z,-4.00
2023-01-30T02:15:44.455Z,-3.90
2023-01-30T02:18:13.626Z,-4.00
2023-01-30T02:20:55.943Z,-4.10
2023-01-30T02:23:38.419Z,-4.10
2023-01-30T02:26:29.919Z,-4.30
2023-01-30T02:29:03.467Z,-4.20
2023-01-30T02:31:43.057Z,-4.40
2023-01-30T02:34:40.310Z,-4.40
2023-01-30T02:37:25.497Z,-4.50
2023-01-30T02:40:19.841Z,-4.40
2023-01-30T02:42:57.226Z,-4.40
2023-01-30T02:45:26.615Z,-4.50
2023-01-30T02:48:04.017Z,-4.20
2023-01-30T02:50:42.647Z,-4.40
2023-01-30T02:53:11.090Z,-4.40
2023-01-30T02:55:42.072Z,-4.50
2023-01-30T02:58:10.929Z,-4.50
2023-01-30T03:01:08.071Z,-4.60
2023-01-30T03:03:58.757Z,-4.70
2023-01-30T03:07:03.278Z,-4.70
2023-01-30T03:09:46.027Z,-4.80
2023-01-30T03:12:23.858Z,-4.80
2023-01-30T03:15:17.484Z,-4.80
2023-01-30T03:17:48.243Z,-4.70
2023-01-30T03:20:20.401Z,-4.70
2023-01-30T03:22:47.895Z,-4.70
2023-01-30T03:25:20.557Z,-4.70
2023-01-30T03:27:52.096Z,-4.80
2023-01-30T03:30:20.445Z,-4.80
2023-01-30T03:32:49.328Z,-4.80
2023-01-30T03:35:18.322Z,-4.80
2023-01-30T03:37:46.631Z,-4.80
2023-01-30T03:40:16.376Z,-4.70
2023-01-30T03:42:46.454Z,-4.70
2023-01-30T03:45:14.789Z,-4.60
2023-01-30T03:47:48.075Z,-4.10
2023-01-30T03:50:16.986Z,-3.20
2023-01-30T03:52:46.156Z,-2.50
2023-01-30T03:55:17.541Z,-2.30
2023-01-30T03:57:45.134Z,-1.80
2023-01-30T04:00:12.896Z,-1.40
2023-01-30T04:02:50.370Z,-1.10
2023-01-30T04:05:19.279Z,-1.10
2023-01-30T04:07:58.042Z,-1.00
2023-01-30T04:10:26.427Z,-0.90
2023-01-30T04:12:53.866Z,-0.80
2023-01-30T04:15:22.570Z,-0.70
2023-01-30T04:18:08.667Z,-0.70
2023-01-30T04:21:05.884Z,-0.70
2023-01-30T04:23:38.029Z,-0.80
2023-01-30T04:26:07.268Z,-0.70
2023-01-30T04:28:38.798Z,-0.60
2023-01-30T04:31:07.255Z,-0.60
2023-01-30T04:33:57.409Z,-0.70
2023-01-30T04:36:24.932Z,-0.60
2023-01-30T04:38:52.222Z,-0.50
2023-01-30T04:41:21.620Z,-0.50
2023-01-30T04:43:49.717Z,-0.50
2023-01-30T04:46:35.769Z,-0.50
2023-01-30T04:49:03.095Z,-0.50
2023-01-30T04:51:30.589Z,-0.50
2023-01-30T04:53:59.496Z,-0.40
2023-01-30T04:56:27.318Z,-0.50
2023-01-30T04:58:55.557Z,-0.40
2023-01-30T05:01:30.252Z,-0.40
2023-01-30T05:03:57.761Z,-0.40
2023-01-30T05:06:24.939Z,-0.30
2023-01-30T05:08:54.756Z,-0.20
2023-01-30T05:11:23.818Z,-0.20
2023-01-30T05:13:52.269Z,-0.20
2023-01-30T05:16:21.377Z,-0.20
2023-01-30T05:18:49.079Z,-0.20
2023-01-30T05:21:28.907Z,-0.10
2023-01-30T05:23:57.804Z,-0.10
2023-01-30T05:26:25.194Z,-0.10
2023-01-30T05:28:57.875Z,-0.10
2023-01-30T05:31:25.422Z,-0.20
2023-01-30T05:33:53.201Z,-0.10
2023-01-30T05:36:22.775Z,-0.10
2023-01-30T05:38:50.174Z,0.00
2023-01-30T05:41:18.442Z,-0.10
2023-01-30T05:43:49.770Z,0.00
2023-01-30T05:46:17.631Z,0.00
2023-01-30T05:48:44.957Z,-0.10
2023-01-30T05:51:21.210Z,-0.10
2023-01-30T05:53:49.358Z,-0.10
2023-01-30T05:56:17.327Z,-0.10
2023-01-30T05:58:49.774Z,-0.10
2023-01-30T06:01:18.610Z,-0.10
2023-01-30T06:03:46.879Z,-0.10
2023-01-30T06:06:14.317Z,-0.10
2023-01-30T06:08:42.008Z,0.00
2023-01-30T06:11:12.520Z,-0.10
2023-01-30T06:13:40.069Z,-0.20
2023-01-30T06:16:08.654Z,-0.10
2023-01-30T06:18:36.425Z,-0.10
2023-01-30T06:21:04.374Z,-0.10
2023-01-30T06:23:33.109Z,-0.10
2023-01-30T06:26:02.137Z,-0.10
2023-01-30T06:28:31.254Z,-0.10
2023-01-30T06:30:58.892Z,-0.10
2023-01-30T06:33:26.331Z,-0.10
2023-01-30T06:35:54.026Z,-0.10
2023-01-30T06:38:21.408Z,-0.10
2023-01-30T06:40:50.455Z,-0.10
2023-01-30T06:43:18.203Z,-0.20
2023-01-30T06:45:45.406Z,-0.10
2023-01-30T06:48:13.148Z,-0.10
2023-01-30T06:50:40.430Z,-0.10
2023-01-30T06:53:08.784Z,-0.10
2023-01-30T06:55:36.786Z,0.00
2023-01-30T06:58:09.824Z,0.00
2023-01-30T07:00:40.439Z,0.10
2023-01-30T07:03:15.459Z,0.10
2023-01-30T07:05:44.874Z,0.00
2023-01-30T07:08:13.359Z,0.10
2023-01-30T07:10:41.919Z,0.10
2023-01-30T07:13:09.706Z,0.10
2023-01-30T07:15:37.005Z,0.10
2023-01-30T07:18:04.460Z,0.10
2023-01-30T07:20:32.041Z,0.10
2023-01-30T07:22:59.555Z,0.20
2023-01-30T07:25:28.330Z,0.20
2023-01-30T07:27:58.496Z,0.20
2023-01-30T07:30:27.786Z,0.20
2023-01-30T07:32:58.006Z,0.20
2023-01-30T07:35:27.291Z,0.20
2023-01-30T07:37:55.927Z,0.30
2023-01-30T07:40:24.304Z,0.20
2023-01-30T07:42:58.288Z,0.30
2023-01-30T07:45:31.602Z,0.40
2023-01-30T07:47:58.953Z,0.50
2023-01-30T07:50:26.371Z,0.50
2023-01-30T07:52:53.565Z,0.50
2023-01-30T07:55:20.893Z,0.50
2023-01-30T07:57:48.322Z,0.50
2023-01-30T08:00:16.815Z,0.50
2023-01-30T08:02:44.303Z,0.50
2023-01-30T08:05:11.548Z,0.60
2023-01-30T08:07:39.612Z,0.60
2023-01-30T08:10:09.328Z,0.70
2023-01-30T08:12:38.311Z,0.80
2023-01-30T08:15:06.276Z,0.90
2023-01-30T08:17:34.554Z,0.90
2023-01-30T08:20:01.949Z,0.90
2023-01-30T08:22:29.524Z,0.90
2023-01-30T08:24:56.694Z,1.00
2023-01-30T08:27:23.990Z,1.00
2023-01-30T08:29:51.230Z,1.10
2023-01-30T08:32:18.526Z,1.10
2023-01-30T08:34:45.635Z,1.10
2023-01-30T08:37:12.968Z,1.10
2023-01-30T08:39:40.322Z,1.10
2023-01-30T08:42:07.799Z,1.10
2023-01-30T08:44:35.084Z,1.20
2023-01-30T08:47:02.377Z,1.20
2023-01-30T08:49:29.501Z,1.30
2023-01-30T08:51:57.174Z,1.30
2023-01-30T08:54:24.339Z,1.50
2023-01-30T08:56:51.569Z,1.60
2023-01-30T08:59:18.746Z,1.70
2023-01-30T09:01:46.047Z,1.80
2023-01-30T09:04:13.276Z,1.90
2023-01-30T09:06:40.466Z,1.80
2023-01-30T09:09:07.997Z,1.80
2023-01-30T09:11:35.381Z,1.80
2023-01-30T09:14:02.514Z,1.90
2023-01-30T09:16:29.839Z,1.90
2023-01-30T09:18:57.055Z,1.90
2023-01-30T09:21:24.687Z,2.00
2023-01-30T09:23:51.895Z,2.00
2023-01-30T09:26:19.331Z,2.00
2023-01-30T09:28:46.642Z,1.90
2023-01-30T09:31:13.965Z,1.80
2023-01-30T09:33:41.375Z,1.80
2023-01-30T09:36:09.296Z,1.70
2023-01-30T09:38:36.415Z,1.70
2023-01-30T09:41:12.675Z,1.70
2023-01-30T09:44:02.650Z,1.70
2023-01-30T09:46:50.421Z,1.80
2023-01-30T09:49:50.101Z,1.90
2023-01-30T09:52:23.413Z,2.00
2023-01-30T09:54:53.992Z,2.10
2023-01-30T09:57:26.056Z,2.20
2023-01-30T10:00:21.565Z,2.30
2023-01-30T10:03:09.062Z,2.50
2023-01-30T10:05:50.326Z,2.60
2023-01-30T10:08:39.025Z,2.60
2023-01-30T10:11:15.100Z,2.50
2023-01-30T10:14:20.076Z,2.40
2023-01-30T10:17:16.898Z,2.30
2023-01-30T10:20:19.943Z,2.30
2023-01-30T10:22:55.997Z,2.30
2023-01-30T10:25:44.348Z,2.30
2023-01-30T10:28:32.593Z,2.30
2023-01-30T10:31:11.528Z,2.30
2023-01-30T10:34:01.453Z,2.30
2023-01-30T10:36:53.846Z,2.40
2023-01-30T10:39:56.632Z,2.50
2023-01-30T10:42:43.879Z,2.50
2023-01-30T10:45:16.463Z,2.60
2023-01-30T10:47:55.588Z,2.50
2023-01-30T10:51:00.012Z,2.50
2023-01-30T10:53:54.161Z,2.60
2023-01-30T10:56:33.472Z,2.60
2023-01-30T10:59:11.966Z,2.60
2023-01-30T11:01:47.036Z,2.90
2023-01-30T11:04:47.356Z,3.20
2023-01-30T11:07:15.057Z,3.10
2023-01-30T11:09:50.052Z,3.10
2023-01-30T11:12:17.349Z,3.20
2023-01-30T11:15:04.392Z,3.60
2023-01-30T11:17:43.087Z,3.80
2023-01-30T11:20:20.156Z,5.40
2023-01-30T11:23:04.887Z,5.00
2023-01-30T11:25:46.957Z,6.40
2023-01-30T11:28:17.533Z,4.30
2023-01-30T11:30:50.728Z,6.80
2023-01-30T11:33:22.030Z,7.90
2023-01-30T11:35:56.486Z,4.90
2023-01-30T11:38:30.011Z,3.90
2023-01-30T11:41:13.435Z,3.60
2023-01-30T11:43:40.821Z,3.40
2023-01-30T11:46:16.267Z,3.30
2023-01-30T11:49:33.635Z,3.10
2023-01-30T11:51:47.717Z,3.10
2023-01-30T11:54:18.906Z,3.10
2023-01-30T11:56:52.734Z,3.10
2023-01-30T11:59:19.925Z,3.10
2023-01-30T12:01:47.301Z,3.10
2023-01-30T12:04:14.915Z,3.20
2023-01-30T12:06:43.801Z,3.20
2023-01-30T12:09:29.934Z,3.30
2023-01-30T12:11:57.167Z,3.30
2023-01-30T12:14:41.697Z,3.40
2023-01-30T12:17:36.476Z,3.30
2023-01-30T12:20:40.564Z,3.30
2023-01-30T12:23:32.141Z,3.20
2023-01-30T12:26:12.564Z,3.20
2023-01-30T12:29:17.592Z,3.10
2023-01-30T12:31:50.549Z,3.10
2023-01-30T12:34:18.242Z,3.10
2023-01-30T12:36:48.327Z,3.10
2023-01-30T12:39:21.460Z,3.10
2023-01-30T12:42:03.531Z,3.10
2023-01-30T12:45:12.995Z,3.00
2023-01-30T12:47:56.365Z,3.10
2023-01-30T12:53:51.310Z,3.10
2023-01-30T12:56:29.343Z,3.00
2023-01-30T12:59:14.726Z,3.10
2023-01-30T13:01:53.827Z,3.10
2023-01-30T13:04:56.429Z,3.20
2023-01-30T13:07:50.570Z,3.20
2023-01-30T13:10:50.197Z,3.10
2023-01-30T13:13:24.038Z,3.10
2023-01-30T13:15:52.393Z,3.10
2023-01-30T13:18:48.443Z,3.00
2023-01-30T13:21:55.101Z,3.00
2023-01-30T13:24:48.520Z,2.90
2023-01-30T13:27:22.005Z,2.90
2023-01-30T13:29:50.476Z,3.00
2023-01-30T13:32:42.714Z,3.00
2023-01-30T13:35:20.076Z,3.00
2023-01-30T13:37:49.238Z,3.00
2023-01-30T13:40:23.883Z,3.00
2023-01-30T13:42:59.340Z,3.00
2023-01-30T13:45:29.572Z,3.00
2023-01-30T13:48:03.834Z,2.90
2023-01-30T13:50:55.730Z,2.90
2023-01-30T13:53:34.085Z,2.90
2023-01-30T13:56:40.168Z,2.90
2023-01-30T13:59:29.343Z,2.90
2023-01-30T14:01:59.752Z,2.80
2023-01-30T14:04:43.531Z,2.80
2023-01-30T14:07:39.127Z,2.80
2023-01-30T14:10:11.299Z,2.80
2023-01-30T14:12:51.153Z,2.80
2023-01-30T14:15:21.479Z,2.80
2023-01-30T14:17:58.384Z,2.80
2023-01-30T14:20:27.822Z,2.70
2023-01-30T14:22:59.095Z,2.80
2023-01-30T14:25:26.414Z,2.80
2023-01-30T14:28:00.744Z,2.70
2023-01-30T14:30:50.579Z,2.70
2023-01-30T14:33:24.147Z,2.70
2023-01-30T14:36:03.443Z,2.80
2023-01-30T14:38:41.834Z,2.80
2023-01-30T14:41:17.511Z,2.80
2023-01-30T14:43:45.044Z,2.80
2023-01-30T14:46:18.346Z,2.70
2023-01-30T14:48:54.515Z,2.70
2023-01-30T14:51:24.739Z,2.70
2023-01-30T14:54:07.205Z,2.70
2023-01-30T14:56:42.228Z,2.70
2023-01-30T14:59:33.257Z,2.60
2023-01-30T15:02:12.607Z,2.70
2023-01-30T15:04:56.299Z,2.60
2023-01-30T15:07:32.614Z,2.60
2023-01-30T15:10:11.764Z,2.60
2023-01-30T15:13:17.764Z,2.60
2023-01-30T15:16:08.401Z,2.60
2023-01-30T15:19:13.628Z,2.60
2023-01-30T15:21:49.951Z,2.50
2023-01-30T15:24:23.382Z,2.60
2023-01-30T15:26:59.571Z,2.60
2023-01-30T15:29:53.876Z,2.50
2023-01-30T15:32:29.927Z,2.50
2023-01-30T15:34:59.591Z,2.60
2023-01-30T15:37:35.294Z,2.60
2023-01-30T15:40:21.086Z,2.60
2023-01-30T15:42:57.364Z,2.60
2023-01-30T15:45:36.830Z,2.60
2023-01-30T15:48:42.909Z,2.60
2023-01-30T15:51:14.239Z,2.60
2023-01-30T15:53:48.026Z,2.60
2023-01-30T15:56:23.220Z,2.60
2023-01-30T15:58:51.761Z,2.60
2023-01-30T16:01:22.571Z,2.60
2023-01-30T16:03:51.410Z,2.60
2023-01-30T16:06:34.306Z,2.70
2023-01-30T16:09:08.547Z,2.60
2023-01-30T16:11:42.923Z,2.70
2023-01-30T16:14:15.652Z,2.70
2023-01-30T16:16:55.036Z,2.70
2023-01-30T16:19:34.890Z,2.60
2023-01-30T16:22:15.674Z,2.60
2023-01-30T16:24:46.273Z,2.60
2023-01-30T16:27:29.814Z,2.60
2023-01-30T16:30:08.743Z,2.70
2023-01-30T16:32:38.705Z,2.70
2023-01-30T16:35:27.268Z,2.70
2023-01-30T16:37:57.932Z,2.70
2023-01-30T16:40:31.131Z,2.70
2023-01-30T16:43:04.660Z,2.80
2023-01-30T16:45:34.959Z,2.70
2023-01-30T16:48:33.564Z,2.70
2023-01-30T16:51:01.216Z,2.70
2023-01-30T16:53:31.429Z,2.80
2023-01-30T16:56:14.673Z,2.80
2023-01-30T16:58:46.615Z,2.80
2023-01-30T17:01:13.937Z,2.80
2023-01-30T17:03:44.517Z,2.80
2023-01-30T17:06:23.860Z,2.80
2023-01-30T17:08:58.973Z,2.70
2023-01-30T17:11:36.296Z,2.70
2023-01-30T17:14:31.452Z,2.70
2023-01-30T17:17:07.791Z,2.70
2023-01-30T17:19:36.324Z,2.70
2023-01-30T17:22:07.589Z,2.60
2023-01-30T17:24:36.237Z,2.60
2023-01-30T17:27:04.840Z,2.60
2023-01-30T17:29:42.549Z,2.60
2023-01-30T17:32:15.529Z,2.50
2023-01-30T17:34:43.259Z,2.60
2023-01-30T17:37:20.100Z,2.60
2023-01-30T17:39:48.342Z,2.60
2023-01-30T17:42:22.266Z,2.60
2023-01-30T17:44:50.154Z,2.50
2023-01-30T17:47:17.565Z,2.50
2023-01-30T17:49:44.835Z,2.50
2023-01-30T17:52:14.192Z,2.40
2023-01-30T17:54:41.358Z,2.50
2023-01-30T17:57:11.981Z,2.50
2023-01-30T17:59:39.758Z,2.40
2023-01-30T18:02:09.911Z,2.50
2023-01-30T18:04:37.352Z,2.40
2023-01-30T18:07:09.672Z,2.40
2023-01-30T18:09:37.899Z,2.40
2023-01-30T18:12:05.780Z,2.40
2023-01-30T18:14:33.050Z,2.40
2023-01-30T18:17:01.961Z,2.40
2023-01-30T18:19:31.602Z,2.40
2023-01-30T18:21:59.197Z,2.40
2023-01-30T18:24:26.399Z,2.40
2023-01-30T18:26:54.242Z,2.40
2023-01-30T18:29:21.659Z,2.50
2023-01-30T18:31:48.958Z,2.60
2023-01-30T18:34:16.495Z,2.60
2023-01-30T18:36:43.893Z,2.60
2023-01-30T18:39:12.395Z,2.60
2023-01-30T18:41:39.603Z,2.70
2023-01-30T18:44:07.382Z,2.70
2023-01-30T18:46:36.394Z,2.70
2023-01-30T18:49:03.549Z,2.70
2023-01-30T18:51:35.176Z,2.80
2023-01-30T18:54:04.974Z,2.80
2023-01-30T18:56:35.569Z,2.90
2023-01-30T18:59:06.273Z,2.90
2023-01-30T19:01:39.570Z,2.90
2023-01-30T19:04:09.929Z,2.90
2023-01-30T19:06:40.563Z,2.90
2023-01-30T19:09:08.895Z,3.00
2023-01-30T19:11:54.655Z,3.00
2023-01-30T19:14:22.051Z,3.10
2023-01-30T19:16:51.451Z,3.20
2023-01-30T19:19:21.520Z,3.20
2023-01-30T19:21:52.497Z,3.10
2023-01-30T19:24:21.295Z,3.20
2023-01-30T19:26:48.779Z,3.10
2023-01-30T19:29:17.122Z,3.10
2023-01-30T19:31:47.450Z,3.20
2023-01-30T19:34:16.163Z,3.20
2023-01-30T19:36:43.611Z,3.10
2023-01-30T19:39:10.954Z,3.10
2023-01-30T19:41:38.813Z,3.10
2023-01-30T19:44:08.341Z,3.00
2023-01-30T19:46:36.258Z,3.00
2023-01-30T19:49:05.627Z,3.00
2023-01-30T19:51:36.094Z,3.10
2023-01-30T19:54:11.040Z,3.00
2023-01-30T19:56:42.088Z,3.00
2023-01-30T19:59:13.293Z,3.00
2023-01-30T20:01:42.302Z,3.00
2023-01-30T20:04:09.572Z,2.90
2023-01-30T20:06:38.422Z,2.90
2023-01-30T20:09:10.203Z,2.80
2023-01-30T20:11:39.720Z,2.80
2023-01-30T20:14:07.327Z,2.70
2023-01-30T20:16:36.135Z,2.70
2023-01-30T20:19:11.919Z,2.80
2023-01-30T20:21:40.430Z,2.80
2023-01-30T20:24:14.263Z,2.90
2023-01-30T20:26:41.904Z,3.00
2023-01-30T20:29:10.510Z,3.00
2023-01-30T20:31:41.411Z,3.00
2023-01-30T20:34:12.123Z,2.90
2023-01-30T20:36:39.648Z,3.00
2023-01-30T20:39:13.142Z,3.00
2023-01-30T20:41:42.017Z,3.00
2023-01-30T20:44:13.160Z,3.10
2023-01-30T20:46:47.464Z,3.10
2023-01-30T20:49:17.812Z,3.10
2023-01-30T20:51:46.560Z,3.10
2023-01-30T20:54:15.482Z,3.10
2023-01-30T20:56:51.332Z,3.00
2023-01-30T20:59:24.281Z,3.10
2023-01-30T21:01:52.611Z,3.00
2023-01-30T21:04:21.277Z,3.00
2023-01-30T21:06:48.592Z,3.00
2023-01-30T21:09:18.893Z,3.00
2023-01-30T21:11:47.461Z,3.00
2023-01-30T21:14:16.511Z,2.90
2023-01-30T21:16:44.904Z,3.00
2023-01-30T21:19:16.636Z,3.00
2023-01-30T21:21:55.301Z,3.20
2023-01-30T21:24:29.785Z,3.10
2023-01-30T21:26:57.624Z,3.20
2023-01-30T21:29:28.522Z,3.30
2023-01-30T21:31:57.774Z,3.50
2023-01-30T21:34:25.648Z,3.50
2023-01-30T21:37:11.476Z,3.60
2023-01-30T21:39:57.693Z,3.60
2023-01-30T21:42:43.476Z,3.50
2023-01-30T21:45:10.856Z,3.40
2023-01-30T21:47:38.089Z,3.20
2023-01-30T21:50:05.933Z,3.20
2023-01-30T21:52:33.599Z,3.20
2023-01-30T21:55:00.893Z,3.20
2023-01-30T21:57:28.181Z,3.10
2023-01-30T21:59:55.671Z,3.10
2023-01-30T22:02:22.954Z,3.20
2023-01-30T22:04:50.325Z,3.20
2023-01-30T22:07:17.636Z,3.10
2023-01-30T22:09:44.834Z,3.10
2023-01-30T22:12:12.095Z,3.00
2023-01-30T22:14:39.798Z,3.10
2023-01-30T22:17:07.281Z,3.10
2023-01-30T22:19:35.863Z,3.10
2023-01-30T22:22:04.776Z,3.10
2023-01-30T22:24:32.151Z,3.00
2023-01-30T22:26:59.618Z,3.00
2023-01-30T22:29:29.333Z,3.00
2023-01-30T22:31:56.853Z,3.00
2023-01-30T22:34:24.206Z,3.00
2023-01-30T22:36:52.249Z,3.00
2023-01-30T22:39:19.486Z,3.10
2023-01-30T22:41:46.812Z,3.10
2023-01-30T22:44:14.010Z,3.10
2023-01-30T22:46:42.218Z,3.30
2023-01-30T22:49:10.216Z,3.50
2023-01-30T22:51:40.866Z,3.70
2023-01-30T22:54:15.806Z,4.00
2023-01-30T22:56:45.793Z,4.10
2023-01-30T22:59:14.137Z,4.10
2023-01-30T23:01:44.933Z,4.10
2023-01-30T23:04:30.339Z,4.10
2023-01-30T23:06:58.030Z,4.10
2023-01-30T23:09:25.205Z,4.20
2023-01-30T23:12:13.987Z,4.20
2023-01-30T23:14:43.064Z,4.20
2023-01-30T23:17:29.311Z,4.10
2023-01-30T23:19:57.409Z,4.00
2023-01-30T23:22:24.729Z,4.20
2023-01-30T23:24:52.841Z,4.30
2023-01-30T23:27:21.356Z,4.20
2023-01-30T23:29:48.779Z,4.00
2023-01-30T23:32:20.284Z,4.20
2023-01-30T23:34:48.493Z,4.10
2023-01-30T23:37:16.662Z,4.30
2023-01-30T23:39:45.172Z,4.30
2023-01-30T23:42:12.618Z,4.30
2023-01-30T23:44:40.190Z,4.20
2023-01-30T23:47:07.763Z,4.20
2023-01-30T23:49:35.333Z,4.10
2023-01-30T23:52:02.795Z,4.10
2023-01-30T23:54:30.041Z,4.20
2023-01-30T23:56:57.374Z,4.40
2023-01-30T23:59:24.593Z,4.40
